Time;durP1;ratioP1;P1;durP2;ratioP2;P2;SDS_P1;SDS_P2;PMS_P1;PMS_P2;Temp;Humidity;BMP_temperature;BMP_pressure;BME280_temperature;BME280_humidity;BME280_pressure;Samples;Min_cycle;Max_cycle;Signal;HPM_P1;HPM_P2
2022/05/25 00:00:25;;;;;;;2.75;2.40;;;17.40;59.80;;;;;;4971021;28;20480;-75
2022/05/25 00:02:52;;;;;;;3.05;2.75;;;17.40;59.90;;;;;;4972904;28;20039;-75
2022/05/25 00:05:20;;;;;;;3.15;2.70;;;17.40;59.90;;;;;;4954467;28;20038;-75
2022/05/25 00:07:46;;;;;;;4.13;2.92;;;17.30;59.90;;;;;;4954604;28;20026;-75
2022/05/25 00:10:12;;;;;;;3.95;2.63;;;17.30;59.90;;;;;;4970759;28;20022;-75
2022/05/25 00:12:40;;;;;;;3.20;2.40;;;17.30;60.00;;;;;;4971827;28;20030;-75
2022/05/25 00:15:08;;;;;;;3.20;2.60;;;17.20;60.00;;;;;;4954794;28;20046;-75
2022/05/25 00:17:33;;;;;;;3.00;2.50;;;17.30;60.10;;;;;;4955299;28;20023;-76
2022/05/25 00:19:59;;;;;;;3.88;2.90;;;17.20;60.10;;;;;;4970796;28;20037;-75
2022/05/25 00:22:38;;;;;;;2.85;2.55;;;17.20;60.10;;;;;;4970223;28;20378;-75
2022/05/25 00:25:05;;;;;;;3.20;2.65;;;17.10;60.10;;;;;;4954504;28;20022;-76
2022/05/25 00:27:31;;;;;;;3.50;2.95;;;17.10;60.10;;;;;;4970705;28;20030;-75
2022/05/25 00:29:57;;;;;;;3.53;3.00;;;17.10;60.20;;;;;;4954220;28;20125;-75
2022/05/25 00:32:22;;;;;;;3.55;2.50;;;17.10;60.20;;;;;;4971970;28;20085;-75
2022/05/25 00:34:48;;;;;;;3.28;2.70;;;17.10;60.30;;;;;;4953580;28;20103;-75
2022/05/25 00:37:14;;;;;;;3.60;2.72;;;17.10;60.30;;;;;;4970699;28;20033;-75
2022/05/25 00:39:40;;;;;;;3.47;2.83;;;17.00;60.30;;;;;;4970448;28;20033;-75
2022/05/25 00:42:07;;;;;;;3.20;2.50;;;17.00;60.30;;;;;;4969268;28;20089;-75
2022/05/25 00:44:32;;;;;;;3.08;2.72;;;17.00;60.40;;;;;;4951000;28;20026;-75
2022/05/25 00:46:59;;;;;;;4.00;3.03;;;17.00;60.40;;;;;;4969508;28;20476;-76
2022/05/25 00:49:32;;;;;;;2.95;2.58;;;16.90;60.40;;;;;;4954233;28;20113;-75
2022/05/25 00:52:05;;;;;;;3.28;2.70;;;16.90;60.50;;;;;;4971281;28;20031;-75
2022/05/25 00:54:38;;;;;;;3.60;2.85;;;16.90;60.50;;;;;;4971674;28;20038;-75
2022/05/25 00:57:15;;;;;;;3.30;2.90;;;16.90;60.60;;;;;;4975970;28;20038;-76
2022/05/25 01:00:07;;;;;;;3.00;2.70;;;16.80;60.50;;;;;;4963145;28;20031;-76
2022/05/25 01:02:36;;;;;;;3.30;2.78;;;16.80;60.60;;;;;;5001351;28;20023;-75
2022/05/25 01:05:03;;;;;;;3.25;2.90;;;16.80;60.50;;;;;;4969739;28;20031;-75
2022/05/25 01:07:55;;;;;;;3.47;2.92;;;16.70;60.50;;;;;;4970243;28;20031;-75
2022/05/25 01:10:42;;;;;;;3.92;3.10;;;16.70;60.70;;;;;;4966215;28;20105;-76
2022/05/25 01:13:28;;;;;;;2.63;2.38;;;16.70;60.60;;;;;;4970718;28;20035;-74
2022/05/25 01:16:11;;;;;;;3.30;2.60;;;16.70;60.80;;;;;;4969541;28;20050;-75
2022/05/25 01:18:55;;;;;;;3.70;2.80;;;16.70;60.70;;;;;;4964997;28;20034;-75
2022/05/25 01:21:34;;;;;;;4.55;2.92;;;16.60;60.80;;;;;;4964572;28;20102;-75
2022/05/25 01:24:36;;;;;;;4.03;3.10;;;16.60;61.40;;;;;;4970346;28;20026;-75
2022/05/25 01:27:34;;;;;;;4.18;3.00;;;16.60;61.00;;;;;;4920367;28;20422;-75
2022/05/25 01:30:11;;;;;;;3.50;2.70;;;16.60;60.90;;;;;;4969330;28;20054;-76
2022/05/25 01:32:57;;;;;;;3.42;2.85;;;16.50;60.90;;;;;;4970792;28;20035;-74
2022/05/25 01:35:41;;;;;;;4.07;3.05;;;16.50;60.90;;;;;;4929885;28;20034;-75
2022/05/25 01:38:22;;;;;;;4.05;3.20;;;16.50;61.00;;;;;;4970806;28;20490;-75
2022/05/25 01:40:48;;;;;;;3.83;3.03;;;16.40;61.00;;;;;;4971131;28;20027;-75
2022/05/25 01:43:22;;;;;;;4.38;3.25;;;16.40;60.90;;;;;;4968676;28;20033;-76
2022/05/25 01:45:56;;;;;;;3.33;2.70;;;16.40;61.10;;;;;;4969469;28;20023;-77
2022/05/25 01:48:24;;;;;;;3.47;2.72;;;16.40;61.00;;;;;;4971361;28;20049;-75
2022/05/25 01:51:05;;;;;;;3.40;2.65;;;16.40;61.00;;;;;;4954529;28;20023;-74
2022/05/25 01:53:37;;;;;;;3.20;2.45;;;16.30;61.10;;;;;;4968965;28;20050;-77
2022/05/25 01:56:07;;;;;;;3.47;2.63;;;16.30;61.10;;;;;;4971697;28;20497;-75
2022/05/25 01:58:36;;;;;;;3.33;2.95;;;16.30;61.10;;;;;;4989024;28;20027;-75
2022/05/25 02:01:05;;;;;;;2.70;2.40;;;16.30;61.20;;;;;;4957897;28;20038;-75
2022/05/25 02:06:52;;;;;;;3.58;2.55;;;16.20;61.20;;;;;;4970207;28;20042;-75
2022/05/25 02:09:20;;;;;;;2.75;2.53;;;16.20;61.30;;;;;;4972640;28;20035;-75
2022/05/25 02:11:50;;;;;;;3.08;2.63;;;16.20;61.20;;;;;;4962453;28;20026;-74
2022/05/25 02:14:35;;;;;;;3.58;2.50;;;16.20;61.30;;;;;;4974302;28;20606;-74
2022/05/25 02:17:06;;;;;;;3.53;2.50;;;16.20;61.30;;;;;;4973513;28;20085;-74
2022/05/25 02:19:57;;;;;;;3.30;2.63;;;16.20;61.30;;;;;;4973199;28;20352;-75
2022/05/25 02:22:33;;;;;;;3.72;2.75;;;16.10;62.00;;;;;;4971136;28;20451;-74
2022/05/25 02:25:04;;;;;;;3.13;2.47;;;16.10;61.30;;;;;;4973871;28;20023;-75
2022/05/25 02:27:41;;;;;;;3.80;2.85;;;16.10;61.40;;;;;;4972822;28;20666;-74
2022/05/25 02:30:14;;;;;;;2.95;2.45;;;16.00;61.40;;;;;;4970359;28;20030;-75
2022/05/25 02:33:01;;;;;;;3.72;2.90;;;16.10;61.50;;;;;;4972506;28;20398;-75
2022/05/25 02:35:28;;;;;;;3.65;2.70;;;16.00;61.50;;;;;;4973339;28;20035;-74
2022/05/25 02:37:59;;;;;;;5.20;2.90;;;16.00;61.40;;;;;;4973813;28;20493;-75
2022/05/25 02:40:27;;;;;;;3.60;2.70;;;16.00;61.50;;;;;;4971985;28;20049;-75
2022/05/25 02:42:54;;;;;;;3.55;2.80;;;16.00;61.50;;;;;;4952701;28;20019;-75
2022/05/25 02:45:19;;;;;;;3.70;2.83;;;16.00;61.50;;;;;;4972790;28;20026;-74
2022/05/25 02:47:45;;;;;;;3.67;3.00;;;16.00;61.60;;;;;;4955941;28;20549;-73
2022/05/25 02:50:11;;;;;;;3.97;2.63;;;15.90;61.50;;;;;;4956257;28;20078;-74
2022/05/25 02:52:37;;;;;;;3.55;2.80;;;15.90;61.50;;;;;;4971901;28;20058;-74
2022/05/25 02:55:04;;;;;;;3.85;2.97;;;15.90;61.50;;;;;;4973579;28;20057;-74
2022/05/25 02:57:30;;;;;;;3.83;2.95;;;15.90;61.60;;;;;;4971988;28;20035;-76
2022/05/25 02:59:56;;;;;;;3.78;2.90;;;15.80;61.50;;;;;;4954957;28;20023;-74
2022/05/25 03:02:21;;;;;;;3.58;2.92;;;15.90;62.20;;;;;;4953391;28;20039;-74
2022/05/25 03:04:48;;;;;;;3.40;2.70;;;15.80;61.50;;;;;;4954806;28;20062;-74
2022/05/25 03:07:13;;;;;;;3.17;2.72;;;15.80;61.50;;;;;;4970955;28;20037;-74
2022/05/25 03:09:39;;;;;;;3.38;2.72;;;15.80;61.60;;;;;;4972715;28;20022;-74
2022/05/25 03:12:07;;;;;;;3.40;2.75;;;15.80;61.60;;;;;;4972282;28;20379;-75
2022/05/25 03:14:34;;;;;;;3.42;2.78;;;15.80;61.60;;;;;;4952967;28;20043;-74
2022/05/25 03:17:12;;;;;;;4.50;3.00;;;15.70;61.60;;;;;;4971825;28;20037;-75
2022/05/25 03:19:39;;;;;;;3.30;2.78;;;15.80;61.70;;;;;;4972496;28;20027;-75
2022/05/25 03:22:05;;;;;;;3.95;2.72;;;15.80;61.70;;;;;;4955542;28;20082;-75
2022/05/25 03:24:32;;;;;;;3.35;2.70;;;15.70;61.60;;;;;;4972089;28;20034;-74
2022/05/25 03:26:58;;;;;;;3.63;2.70;;;15.70;61.70;;;;;;4955459;28;20039;-74
2022/05/25 03:29:25;;;;;;;3.35;2.85;;;15.70;61.70;;;;;;4972058;28;20034;-74
2022/05/25 03:31:53;;;;;;;3.40;2.63;;;15.60;61.70;;;;;;4955833;28;20109;-74
2022/05/25 03:34:19;;;;;;;3.53;2.80;;;15.60;61.70;;;;;;4973091;28;20347;-75
2022/05/25 03:36:45;;;;;;;4.10;3.13;;;15.60;61.70;;;;;;4971894;28;20034;-76
2022/05/25 03:39:11;;;;;;;4.10;3.13;;;15.60;61.70;;;;;;4971274;28;20221;-74
2022/05/25 03:41:37;;;;;;;4.10;3.00;;;15.60;61.70;;;;;;4971538;28;20026;-74
2022/05/25 03:44:03;;;;;;;3.83;2.72;;;15.50;61.70;;;;;;4972041;28;20053;-74
2022/05/25 03:46:29;;;;;;;3.50;2.75;;;15.60;61.80;;;;;;4956311;28;20023;-75
2022/05/25 03:48:55;;;;;;;3.08;2.60;;;15.50;61.70;;;;;;4971318;28;20035;-75
2022/05/25 03:51:21;;;;;;;3.22;2.40;;;15.50;61.80;;;;;;4972518;28;20041;-74
2022/05/25 03:53:49;;;;;;;3.67;2.83;;;15.50;61.80;;;;;;4972572;28;20031;-74
2022/05/25 03:56:16;;;;;;;3.28;2.67;;;15.50;61.80;;;;;;4971034;28;20487;-74
2022/05/25 03:58:43;;;;;;;3.97;2.90;;;15.50;61.80;;;;;;4970801;28;20108;-75
2022/05/25 04:01:09;;;;;;;3.75;2.75;;;15.40;61.80;;;;;;4972684;28;20019;-74
2022/05/25 04:03:35;;;;;;;2.97;2.42;;;15.40;61.80;;;;;;4954709;28;20121;-75
2022/05/25 04:06:01;;;;;;;3.95;3.17;;;15.40;61.80;;;;;;4951971;28;20027;-75
2022/05/25 04:08:27;;;;;;;3.92;2.72;;;15.40;61.90;;;;;;4970610;28;20169;-74
2022/05/25 04:10:53;;;;;;;3.85;2.80;;;15.40;61.90;;;;;;4970713;28;20038;-74
2022/05/25 04:13:20;;;;;;;4.18;2.70;;;15.30;61.90;;;;;;4971147;28;20037;-74
2022/05/25 04:15:46;;;;;;;3.85;3.13;;;15.30;61.90;;;;;;4972446;28;20073;-75
2022/05/25 04:18:11;;;;;;;3.50;2.95;;;15.40;62.00;;;;;;4971585;28;20105;-74
2022/05/25 04:20:37;;;;;;;4.05;2.92;;;15.30;62.00;;;;;;4970642;28;20041;-75
2022/05/25 04:23:07;;;;;;;3.78;2.85;;;15.30;62.00;;;;;;4924172;28;20051;-75
2022/05/25 04:25:33;;;;;;;3.33;2.80;;;15.30;62.00;;;;;;4954769;28;20038;-74
2022/05/25 04:27:59;;;;;;;3.35;2.65;;;15.30;62.00;;;;;;4954778;28;20035;-74
2022/05/25 04:30:28;;;;;;;3.72;2.97;;;15.20;62.00;;;;;;4955441;28;20031;-74
2022/05/25 04:32:55;;;;;;;4.03;2.95;;;15.30;62.10;;;;;;4970907;28;20062;-74
2022/05/25 04:35:21;;;;;;;3.75;2.97;;;15.30;62.20;;;;;;4970669;28;20444;-74
2022/05/25 04:37:54;;;;;;;4.13;3.33;;;15.20;62.20;;;;;;4970638;28;20023;-74
2022/05/25 04:40:21;;;;;;;3.17;2.78;;;15.20;62.20;;;;;;4970772;28;20026;-75
2022/05/25 04:42:48;;;;;;;4.30;3.35;;;15.20;62.20;;;;;;4970442;28;20359;-74
2022/05/25 04:45:14;;;;;;;3.97;2.88;;;15.20;62.20;;;;;;4969935;28;20121;-74
2022/05/25 04:47:40;;;;;;;5.00;3.80;;;15.20;62.30;;;;;;4970240;28;20118;-74
2022/05/25 04:50:09;;;;;;;3.95;3.03;;;15.20;62.30;;;;;;4986457;28;20033;-75
2022/05/25 04:52:36;;;;;;;3.97;3.05;;;15.20;62.30;;;;;;4970877;28;20023;-74
2022/05/25 04:55:02;;;;;;;4.05;3.20;;;15.20;62.40;;;;;;4970493;28;20046;-74
2022/05/25 04:57:28;;;;;;;4.57;3.20;;;15.20;62.40;;;;;;4986087;28;20118;-74
2022/05/25 05:00:00;;;;;;;4.00;3.15;;;15.20;62.40;;;;;;4935044;28;20499;-75
2022/05/25 05:02:27;;;;;;;4.28;3.33;;;15.20;62.40;;;;;;4953699;28;20484;-75
2022/05/25 05:04:53;;;;;;;5.45;3.55;;;15.20;62.40;;;;;;4971260;28;20027;-75
2022/05/25 05:07:27;;;;;;;4.47;3.35;;;15.20;62.50;;;;;;4950766;28;20058;-74
2022/05/25 05:09:53;;;;;;;3.47;2.80;;;15.20;62.50;;;;;;4953860;28;20023;-74
2022/05/25 05:12:19;;;;;;;3.60;3.00;;;15.20;62.50;;;;;;4951304;29;20042;-75
2022/05/25 05:14:44;;;;;;;5.07;3.60;;;15.20;62.50;;;;;;4945233;28;20039;-74
2022/05/25 05:17:10;;;;;;;4.05;3.35;;;15.20;62.50;;;;;;4970006;28;20030;-74
2022/05/25 05:19:56;;;;;;;4.22;3.20;;;15.10;62.50;;;;;;4953500;28;20034;-75
2022/05/25 05:22:22;;;;;;;3.13;2.83;;;15.20;62.60;;;;;;4954055;28;20030;-75
2022/05/25 05:24:48;;;;;;;4.03;3.30;;;15.10;62.50;;;;;;4970265;28;20019;-75
2022/05/25 05:27:14;;;;;;;3.75;2.88;;;15.20;62.60;;;;;;4970020;28;20043;-75
2022/05/25 05:29:40;;;;;;;5.20;3.63;;;15.10;62.60;;;;;;4976559;28;20031;-75
2022/05/25 05:32:06;;;;;;;4.07;3.30;;;15.20;62.60;;;;;;4954239;28;20378;-76
2022/05/25 05:34:32;;;;;;;4.78;3.22;;;15.10;62.60;;;;;;4953948;28;20034;-75
2022/05/25 05:37:09;;;;;;;4.30;3.28;;;15.20;62.60;;;;;;4969667;28;20035;-75
2022/05/25 05:39:40;;;;;;;4.47;2.80;;;15.10;62.60;;;;;;4963999;28;20029;-75
2022/05/25 05:42:10;;;;;;;4.57;3.50;;;15.20;62.60;;;;;;4969144;28;20019;-75
2022/05/25 05:44:44;;;;;;;4.18;3.13;;;15.10;62.60;;;;;;4954174;28;20106;-75
2022/05/25 05:47:14;;;;;;;3.42;2.75;;;15.20;62.70;;;;;;4969498;28;20031;-76
2022/05/25 05:49:40;;;;;;;4.57;2.88;;;15.10;62.60;;;;;;4971131;28;20031;-74
2022/05/25 05:52:07;;;;;;;4.03;3.20;;;15.20;62.70;;;;;;4968258;28;20045;-77
2022/05/25 05:54:33;;;;;;;3.83;3.13;;;15.20;62.70;;;;;;4946572;28;20031;-75
2022/05/25 05:56:59;;;;;;;3.40;2.72;;;15.20;62.70;;;;;;4950125;28;20039;-75
2022/05/25 05:59:25;;;;;;;4.25;3.05;;;15.20;62.70;;;;;;4967727;28;20467;-75
2022/05/25 06:01:52;;;;;;;4.03;3.20;;;15.20;62.70;;;;;;4969357;28;20057;-77
2022/05/25 06:04:18;;;;;;;3.88;3.10;;;15.20;62.70;;;;;;4953262;28;20031;-77
2022/05/25 06:06:44;;;;;;;3.95;2.90;;;15.30;62.70;;;;;;4980102;28;20035;-75
2022/05/25 06:09:10;;;;;;;3.90;2.97;;;15.20;62.70;;;;;;4954262;28;20108;-75
2022/05/25 06:11:41;;;;;;;3.95;2.83;;;15.20;62.70;;;;;;4969121;28;20090;-75
2022/05/25 06:14:08;;;;;;;3.03;2.65;;;15.20;62.70;;;;;;4969992;28;20066;-75
2022/05/25 06:19:27;;;;;;;4.22;2.78;;;15.30;62.70;;;;;;4970907;28;20109;-75
2022/05/25 06:22:03;;;;;;;3.92;2.80;;;15.20;62.70;;;;;;4968657;28;20022;-76
2022/05/25 06:24:33;;;;;;;3.35;2.65;;;15.30;62.80;;;;;;4970408;28;20165;-75
2022/05/25 06:26:59;;;;;;;4.28;3.00;;;15.30;62.70;;;;;;4969433;28;20483;-75
2022/05/25 06:29:25;;;;;;;3.65;2.90;;;15.30;62.70;;;;;;4969303;28;20031;-75
2022/05/25 06:31:51;;;;;;;3.28;2.72;;;15.30;62.80;;;;;;4952632;28;20033;-75
2022/05/25 06:34:17;;;;;;;3.58;2.80;;;15.30;62.80;;;;;;4936935;28;20039;-75
2022/05/25 06:36:43;;;;;;;4.85;2.70;;;15.30;62.80;;;;;;4968809;28;20022;-75
2022/05/25 06:39:09;;;;;;;3.65;2.60;;;15.30;62.70;;;;;;4945066;28;20038;-75
2022/05/25 06:41:35;;;;;;;3.20;2.60;;;15.40;62.80;;;;;;4971964;28;20363;-75
2022/05/25 06:44:04;;;;;;;3.05;2.72;;;15.40;62.80;;;;;;4972699;28;20027;-75
2022/05/25 06:46:30;;;;;;;3.17;2.72;;;15.40;62.80;;;;;;4963453;28;20030;-74
2022/05/25 06:48:59;;;;;;;2.78;2.47;;;15.40;62.80;;;;;;4940353;28;20499;-75
2022/05/25 06:51:31;;;;;;;4.00;2.70;;;15.40;62.80;;;;;;4965176;28;20455;-75
2022/05/25 06:53:58;;;;;;;3.30;2.60;;;15.40;62.80;;;;;;4971951;28;20034;-75
2022/05/25 06:56:25;;;;;;;3.40;2.60;;;15.40;62.70;;;;;;4972351;28;20475;-74
2022/05/25 06:58:55;;;;;;;4.00;2.65;;;15.40;62.70;;;;;;4933401;28;20023;-75
2022/05/25 07:01:23;;;;;;;3.20;2.47;;;15.40;63.40;;;;;;4963825;28;20490;-75
2022/05/25 07:03:49;;;;;;;4.30;2.55;;;15.40;62.70;;;;;;4973859;28;20033;-75
2022/05/25 07:06:17;;;;;;;4.90;2.67;;;15.50;62.80;;;;;;4973455;28;20483;-75
2022/05/25 07:08:44;;;;;;;3.13;2.50;;;15.50;62.80;;;;;;4955635;28;20069;-75
2022/05/25 07:11:11;;;;;;;3.15;2.53;;;15.50;62.80;;;;;;4972515;28;20030;-75
2022/05/25 07:13:37;;;;;;;3.78;2.80;;;15.50;62.80;;;;;;4972302;28;20035;-75
2022/05/25 07:16:07;;;;;;;3.10;2.35;;;15.50;62.80;;;;;;4973261;28;20065;-75
2022/05/25 07:18:33;;;;;;;3.63;2.50;;;15.50;62.80;;;;;;4971740;28;20418;-75
2022/05/25 07:21:06;;;;;;;3.25;2.50;;;15.50;62.70;;;;;;4955009;28;20543;-75
2022/05/25 07:23:34;;;;;;;2.83;2.35;;;15.50;62.80;;;;;;4973515;28;20037;-75
2022/05/25 07:25:59;;;;;;;3.35;2.70;;;15.60;62.80;;;;;;4971666;28;20046;-75
2022/05/25 07:28:25;;;;;;;3.35;2.40;;;15.60;62.80;;;;;;4971927;28;20081;-75
2022/05/25 07:30:54;;;;;;;3.33;2.53;;;15.60;62.70;;;;;;4931718;28;20027;-75
2022/05/25 07:33:20;;;;;;;3.83;2.72;;;15.70;62.80;;;;;;4972069;28;20033;-76
2022/05/25 07:35:46;;;;;;;3.70;2.78;;;15.70;62.70;;;;;;4955889;28;20070;-76
2022/05/25 07:38:13;;;;;;;3.15;2.47;;;15.70;62.70;;;;;;4954875;28;20043;-76
2022/05/25 07:40:41;;;;;;;2.67;2.33;;;15.80;62.70;;;;;;4955637;28;20027;-75
2022/05/25 07:43:16;;;;;;;2.75;2.25;;;15.80;62.70;;;;;;4972409;28;20027;-76
2022/05/25 07:45:45;;;;;;;3.22;2.45;;;15.90;62.80;;;;;;4955077;28;20034;-76
2022/05/25 07:48:10;;;;;;;2.90;2.20;;;15.90;62.60;;;;;;4971937;28;20311;-75
2022/05/25 07:50:37;;;;;;;2.92;2.40;;;15.90;62.50;;;;;;4954571;28;20030;-75
2022/05/25 07:53:55;;;;;;;2.42;2.17;;;16.00;62.60;;;;;;4970849;28;20103;-75
2022/05/25 07:55:50;;;;;;;2.72;2.20;;;16.10;62.60;;;;;;4957659;28;20105;-76
2022/05/25 07:58:16;;;;;;;3.08;2.42;;;16.10;62.50;;;;;;4971077;28;20451;-76
2022/05/25 08:00:42;;;;;;;2.75;2.03;;;16.20;62.40;;;;;;4971432;28;20073;-75
2022/05/25 08:05:58;;;;;;;2.40;2.05;;;16.30;62.40;;;;;;4939636;28;20102;-75
2022/05/25 08:08:25;;;;;;;3.28;2.20;;;16.30;62.30;;;;;;4972343;28;20101;-76
2022/05/25 08:11:05;;;;;;;3.38;2.42;;;16.40;62.30;;;;;;4954990;28;20435;-75
2022/05/25 08:13:34;;;;;;;2.75;2.13;;;16.50;62.30;;;;;;4954848;28;20368;-76
2022/05/25 08:16:00;;;;;;;3.10;2.50;;;16.50;62.20;;;;;;4970444;28;20141;-75
2022/05/25 08:18:26;;;;;;;3.15;2.22;;;16.60;62.20;;;;;;4955164;28;20127;-75
2022/05/25 08:20:52;;;;;;;3.13;2.45;;;16.60;62.10;;;;;;4970430;28;20048;-76
2022/05/25 08:23:17;;;;;;;2.60;2.40;;;16.70;62.10;;;;;;4970494;28;20527;-76
2022/05/25 08:25:44;;;;;;;3.00;2.30;;;16.80;62.10;;;;;;4935698;29;20464;-75
2022/05/25 08:28:10;;;;;;;3.35;2.28;;;16.80;62.00;;;;;;4952906;28;20035;-76
2022/05/25 08:30:38;;;;;;;2.72;2.17;;;16.90;62.00;;;;;;4972877;28;20031;-75
2022/05/25 08:33:04;;;;;;;2.65;2.25;;;17.00;62.00;;;;;;4970995;28;20050;-75
2022/05/25 08:35:30;;;;;;;3.35;2.50;;;17.10;61.90;;;;;;4955155;28;20033;-76
2022/05/25 08:38:00;;;;;;;3.55;2.65;;;17.10;61.80;;;;;;4954622;28;20027;-76
2022/05/25 08:40:28;;;;;;;3.25;2.50;;;17.20;61.80;;;;;;4970164;28;20022;-75
2022/05/25 08:43:07;;;;;;;3.60;2.40;;;17.30;61.80;;;;;;4970597;28;20041;-76
2022/05/25 08:45:42;;;;;;;3.88;2.70;;;17.30;61.70;;;;;;4970512;28;20510;-75
2022/05/25 08:48:11;;;;;;;2.85;2.42;;;17.40;61.80;;;;;;4970484;28;20065;-76
2022/05/25 08:50:39;;;;;;;3.28;2.72;;;17.40;61.60;;;;;;4970191;28;20026;-76
2022/05/25 08:53:08;;;;;;;3.38;2.30;;;17.50;61.60;;;;;;4971075;28;20508;-76
2022/05/25 08:55:51;;;;;;;3.53;2.58;;;17.60;61.70;;;;;;4970392;28;20105;-75
2022/05/25 08:58:19;;;;;;;2.85;2.47;;;17.60;61.90;;;;;;4970675;28;20047;-75
2022/05/25 09:00:47;;;;;;;3.78;2.67;;;17.70;61.50;;;;;;4983724;28;20035;-77
2022/05/25 09:03:54;;;;;;;3.08;2.50;;;17.80;61.60;;;;;;4969939;28;20037;-75
2022/05/25 09:06:28;;;;;;;3.47;2.72;;;17.90;61.70;;;;;;4951299;28;20137;-74
2022/05/25 09:09:17;;;;;;;2.75;2.38;;;17.90;61.40;;;;;;4953730;28;20027;-75
2022/05/25 09:11:51;;;;;;;2.92;2.60;;;18.00;61.60;;;;;;4969794;28;20046;-75
2022/05/25 09:14:27;;;;;;;3.70;2.55;;;18.10;61.40;;;;;;4965032;28;20043;-75
2022/05/25 09:16:57;;;;;;;3.38;2.42;;;18.20;61.40;;;;;;4970722;28;20125;-75
2022/05/25 09:19:34;;;;;;;3.10;2.80;;;18.20;61.30;;;;;;4965231;28;20106;-75
2022/05/25 09:22:10;;;;;;;2.95;2.28;;;18.30;61.30;;;;;;4969232;28;20049;-75
2022/05/25 09:24:37;;;;;;;3.83;2.92;;;18.40;61.30;;;;;;4965801;28;20083;-76
2022/05/25 09:27:05;;;;;;;3.75;2.88;;;18.50;61.20;;;;;;4937833;28;20045;-76
2022/05/25 09:29:31;;;;;;;3.00;2.70;;;18.60;61.20;;;;;;4969586;28;20082;-75
2022/05/25 09:32:25;;;;;;;3.47;2.97;;;18.70;61.10;;;;;;4969774;28;20027;-77
2022/05/25 09:35:06;;;;;;;3.92;3.00;;;18.80;61.10;;;;;;4966330;28;20114;-76
2022/05/25 09:37:51;;;;;;;3.70;2.90;;;18.90;60.90;;;;;;4969578;28;20487;-75
2022/05/25 09:40:32;;;;;;;;;;;19.00;60.90;;;;;;4971026;28;20038;-75
2022/05/25 09:42:57;;;;;;;2.95;2.47;;;19.10;60.60;;;;;;4966850;28;19993;-76
2022/05/25 09:45:42;;;;;;;4.30;3.00;;;19.20;60.40;;;;;;4985917;28;20130;-76
2022/05/25 09:48:14;;;;;;;4.40;3.38;;;19.20;60.60;;;;;;4962664;28;20030;-75
2022/05/25 09:50:53;;;;;;;4.18;3.28;;;19.30;60.50;;;;;;4982726;28;20019;-76
2022/05/25 09:53:21;;;;;;;4.55;3.90;;;19.40;60.50;;;;;;4966933;28;20027;-76
2022/05/25 09:55:54;;;;;;;5.03;3.95;;;19.50;60.30;;;;;;4970435;28;20034;-75
2022/05/25 09:58:43;;;;;;;5.22;4.10;;;19.50;60.20;;;;;;4953461;28;20022;-76
2022/05/25 10:01:24;;;;;;;5.20;4.30;;;19.60;60.20;;;;;;4970786;28;20022;-76
2022/05/25 10:03:50;;;;;;;5.20;4.47;;;19.70;60.10;;;;;;4969813;28;20030;-76
2022/05/25 10:06:43;;;;;;;5.80;4.75;;;19.80;60.00;;;;;;4952047;28;20444;-76
2022/05/25 10:09:29;;;;;;;5.60;4.75;;;19.80;60.00;;;;;;4949099;28;20045;-76
2022/05/25 10:12:16;;;;;;;5.05;4.40;;;19.90;60.00;;;;;;4969041;28;20061;-75
2022/05/25 10:14:54;;;;;;;5.68;4.80;;;20.00;59.80;;;;;;4965357;28;20048;-76
2022/05/25 10:17:38;;;;;;;5.40;4.80;;;20.10;59.70;;;;;;4953805;28;20023;-75
2022/05/25 10:20:24;;;;;;;5.43;4.90;;;20.10;59.70;;;;;;4956855;28;20078;-75
2022/05/25 10:22:59;;;;;;;5.53;4.68;;;20.20;59.70;;;;;;4973198;28;20023;-77
2022/05/25 10:25:35;;;;;;;6.95;5.20;;;20.30;59.50;;;;;;4946109;28;20046;-76
2022/05/25 10:28:03;;;;;;;6.55;5.45;;;20.40;59.50;;;;;;4973329;28;20122;-76
2022/05/25 10:39:18;;;;;;;6.93;4.78;;;20.70;59.30;;;;;;4972624;28;20026;-76
2022/05/25 10:41:57;;;;;;;5.53;4.75;;;20.80;59.30;;;;;;4974129;28;20069;-77
2022/05/25 10:44:26;;;;;;;4.80;4.30;;;20.80;59.10;;;;;;4972651;28;20042;-77
2022/05/25 10:46:54;;;;;;;5.35;4.85;;;20.90;59.10;;;;;;4974261;28;20468;-76
2022/05/25 10:49:26;;;;;;;4.78;4.28;;;21.00;59.10;;;;;;4948731;28;20078;-75
2022/05/25 10:52:00;;;;;;;5.05;4.55;;;21.00;59.00;;;;;;4973698;28;20117;-76
2022/05/25 10:54:44;;;;;;;4.72;4.25;;;21.10;58.90;;;;;;4956344;28;20106;-76
2022/05/25 10:57:10;;;;;;;5.40;4.30;;;21.20;58.90;;;;;;4973405;28;20027;-76
2022/05/25 10:59:45;;;;;;;4.40;4.00;;;21.20;58.80;;;;;;4972299;28;20081;-75
2022/05/25 11:02:34;;;;;;;5.43;4.55;;;21.30;58.80;;;;;;4972476;28;20031;-76
2022/05/25 11:05:11;;;;;;;4.35;3.95;;;21.30;58.70;;;;;;4982517;28;20023;-76
2022/05/25 11:07:39;;;;;;;4.80;4.03;;;21.30;58.70;;;;;;4958280;28;20038;-76
2022/05/25 11:10:11;;;;;;;4.38;3.92;;;21.40;58.70;;;;;;4975059;28;20019;-75
2022/05/25 11:12:44;;;;;;;5.82;4.35;;;21.40;58.60;;;;;;4972403;28;20022;-75
2022/05/25 11:15:19;;;;;;;4.47;3.90;;;21.40;58.60;;;;;;4971813;28;20126;-75
2022/05/25 11:18:18;;;;;;;4.78;3.78;;;21.40;58.60;;;;;;4973045;28;20037;-76
2022/05/25 11:21:16;;;;;;;4.30;3.65;;;21.40;58.60;;;;;;4971983;28;20113;-76
2022/05/25 11:24:08;;;;;;;4.47;3.97;;;21.40;58.60;;;;;;4953016;28;20114;-77
2022/05/25 11:26:46;;;;;;;4.03;3.63;;;21.50;58.60;;;;;;4922487;29;20070;-75
2022/05/25 11:29:37;;;;;;;3.95;3.33;;;21.40;58.60;;;;;;4969643;28;20023;-76
2022/05/25 11:32:15;;;;;;;3.88;3.22;;;21.40;58.70;;;;;;4971829;28;20038;-77
2022/05/25 11:34:53;;;;;;;3.72;3.33;;;21.40;58.70;;;;;;4972319;28;20027;-75
2022/05/25 11:37:47;;;;;;;4.10;3.47;;;21.50;58.80;;;;;;4971871;28;20110;-75
2022/05/25 11:40:48;;;;;;;3.38;3.03;;;21.40;58.90;;;;;;4964353;28;20035;-76
2022/05/25 11:43:35;;;;;;;3.40;3.10;;;21.50;58.90;;;;;;4964004;28;20043;-76
2022/05/25 11:46:31;;;;;;;3.42;2.92;;;21.50;58.90;;;;;;4954177;28;20035;-76
2022/05/25 11:49:36;;;;;;;3.30;3.00;;;21.50;58.90;;;;;;4967251;28;20039;-77
2022/05/25 11:52:19;;;;;;;2.80;2.47;;;21.50;58.90;;;;;;4957129;28;20027;-75
2022/05/25 11:54:56;;;;;;;2.88;2.55;;;21.50;58.80;;;;;;4972263;28;20031;-76
2022/05/25 11:57:30;;;;;;;2.92;2.60;;;21.60;58.90;;;;;;4972695;28;20454;-76
2022/05/25 11:59:56;;;;;;;2.83;2.40;;;21.50;58.80;;;;;;4971224;28;20077;-75
2022/05/25 12:02:47;;;;;;;3.38;2.60;;;21.60;58.80;;;;;;4954992;28;20063;-75
2022/05/25 12:05:36;;;;;;;2.25;2.05;;;21.60;59.00;;;;;;4966396;28;20110;-76
2022/05/25 12:08:26;;;;;;;2.40;2.20;;;21.60;58.80;;;;;;4987539;28;20113;-75
2022/05/25 12:11:31;;;;;;;2.40;2.20;;;21.60;58.90;;;;;;4971337;28;20031;-75
2022/05/25 12:14:21;;;;;;;2.23;2.00;;;21.60;58.90;;;;;;4978759;28;20066;-75
2022/05/25 12:16:49;;;;;;;3.05;2.20;;;21.70;58.90;;;;;;4972910;28;20081;-75
2022/05/25 12:19:27;;;;;;;2.40;2.20;;;21.70;58.80;;;;;;4966516;28;20019;-76
2022/05/25 12:22:04;;;;;;;1.98;1.85;;;21.70;58.80;;;;;;4955265;28;20069;-76
2022/05/25 12:24:41;;;;;;;3.53;2.00;;;21.70;58.80;;;;;;4972486;28;20074;-75
2022/05/25 12:27:12;;;;;;;2.40;1.85;;;21.70;58.70;;;;;;4971386;28;20355;-75
2022/05/25 12:29:46;;;;;;;2.75;2.03;;;21.80;58.60;;;;;;4972056;28;20030;-74
2022/05/25 12:32:12;;;;;;;2.20;2.00;;;21.80;58.60;;;;;;4972216;28;20106;-76
2022/05/25 12:34:42;;;;;;;2.10;1.90;;;21.80;58.60;;;;;;4971203;28;20396;-75
2022/05/25 12:37:14;;;;;;;2.50;2.00;;;21.80;58.40;;;;;;4961517;28;20383;-76
2022/05/25 12:39:46;;;;;;;1.75;1.60;;;21.90;58.40;;;;;;4970994;28;20081;-75
2022/05/25 12:42:24;;;;;;;1.60;1.50;;;21.90;58.30;;;;;;4970905;28;20142;-75
2022/05/25 12:50:47;;;;;;;1.73;1.50;;;22.00;58.30;;;;;;4973004;28;20455;-76
2022/05/25 12:53:25;;;;;;;1.88;1.67;;;22.00;58.20;;;;;;4954650;28;20030;-77
2022/05/25 12:56:05;;;;;;;1.80;1.70;;;22.00;58.20;;;;;;4970978;28;20034;-76
2022/05/25 12:58:55;;;;;;;1.70;1.58;;;22.10;58.30;;;;;;4972513;28;20355;-76
2022/05/25 13:01:27;;;;;;;1.73;1.63;;;22.10;58.40;;;;;;4971576;28;20045;-77
2022/05/25 13:03:56;;;;;;;3.58;1.77;;;22.10;58.20;;;;;;4970494;28;20049;-76
2022/05/25 13:06:27;;;;;;;1.63;1.50;;;22.10;58.20;;;;;;4970481;28;20022;-76
2022/05/25 13:08:54;;;;;;;1.15;1.15;;;22.10;58.20;;;;;;4963095;28;20034;-75
2022/05/25 13:11:36;;;;;;;1.67;1.50;;;22.10;58.20;;;;;;4971790;28;20085;-76
2022/05/25 13:14:06;;;;;;;1.50;1.30;;;22.20;58.30;;;;;;4962945;28;20113;-76
2022/05/25 13:16:41;;;;;;;1.50;1.40;;;22.20;58.10;;;;;;4951400;29;20094;-76
2022/05/25 13:19:32;;;;;;;1.98;1.42;;;22.20;58.20;;;;;;4963100;28;20023;-75
2022/05/25 13:22:06;;;;;;;1.38;1.27;;;22.20;58.10;;;;;;4970271;28;20027;-75
2022/05/25 13:24:49;;;;;;;1.90;1.40;;;22.20;58.10;;;;;;4970533;28;20104;-76
2022/05/25 13:27:21;;;;;;;1.30;1.20;;;22.20;58.10;;;;;;4964062;28;20026;-76
2022/05/25 13:29:57;;;;;;;1.52;1.20;;;22.20;58.10;;;;;;4954475;28;20030;-75
2022/05/25 13:33:02;;;;;;;1.55;1.35;;;22.20;58.10;;;;;;4963018;28;20057;-75
2022/05/25 13:35:38;;;;;;;1.50;1.20;;;22.20;58.10;;;;;;4963335;28;20082;-77
2022/05/25 13:38:03;;;;;;;2.17;1.40;;;22.20;58.00;;;;;;4971157;28;20058;-75